Aérodrome :
LOGIN :

S'inscrire | Disclaimer

   EN    FR    IT 

 










Légende :    VFR   VFR Marginal   IFR   IFR Intensif   IFR Très Intensif
Visi : 
Plafond : 
>= 8 km
>= 3000ft
5 à 8 km
1000 à 3000 ft
1500m à 5 km
500 à 1000 ft
800 à 1500m
200 à 500 ft
< 800m
< 200 ft
Symboles :   Orages  Brouillard  Fortes neiges  Fortes précipitations  Vent > 20 kt
SIGMETs :   Divers  Orages  Givrage  Turbulence  Onde Orograph.  Cendres Volcan.






- Altitude de l'aérodrome : 751 ft
- Code IATA : ENC


LFSN - Nancy Essey

DERNIER METAR :
  • 131530Z AUTO 21006KT 170V240 9999 FEW045/// SCT068/// OVC080/// ///CB 20/11 Q1014

METARs EXPIRÉS :
  • 131500Z AUTO 17007KT CAVOK 20/12 Q1014
  • 131430Z AUTO 19007KT 150V220 9999 FEW033 OVC086 20/11 Q1014
  • 131400Z AUTO 16006KT 130V230 9999 -RA SCT040/// BKN047/// BKN058/// //////TCU 19/12 Q1014
  • 131330Z AUTO 16007KT 110V210 9999 //////CB 20/12 Q1014
  • 131300Z AUTO VRB02KT CAVOK 20/11 Q1014
  • 131230Z AUTO VRB04KT CAVOK 19/11 Q1015
  • 131200Z AUTO 32004KT 280V350 9999 ///TCU 19/11 Q1015
  • 131130Z AUTO 31007KT 280V350 9999 FEW039 BKN074 OVC088 19/11 Q1015
  • 131100Z AUTO 22005KT 150V320 9999 BKN038/// BKN044/// BKN056/// //////TCU 20/11 Q1015

Prévision TAF périmée.



MET'MAP, la Météo Aéronautique d'un coup d'oeil ! - Copyright ORBIFLY Décembre 2007 - Disclaimer

ORBIFLY MET'MAP TEAM :

Programmation & Développement : Alexandra Zaïnal
Sur une idée originale de : Baudouin d'Aumeries
Soutien technique & logistique : Manuel Goepfert
Assistance : Marc-Olivier Méhu




SOURCES & CREDITS :

   NOAA